Time;durP1;ratioP1;P1;durP2;ratioP2;P2;SDS_P1;SDS_P2;PMS_P1;PMS_P2;Temp;Humidity;BMP_temperature;BMP_pressure;BME280_temperature;BME280_humidity;BME280_pressure;Samples;Min_cycle;Max_cycle;Signal;HPM_P1;HPM_P2
2022/07/15 00:02:23;;;;;;;6.90;2.60;;;;;;;;;;4911542;29;20073;-70
2022/07/15 00:04:49;;;;;;;7.30;2.10;;;;;;;;;;4910646;29;20068;-69
2022/07/15 00:07:16;;;;;;;6.38;2.10;;;;;;;;;;4917397;29;20082;-69
2022/07/15 00:12:26;;;;;;;6.32;2.17;;;;;;;;;;4914227;29;20060;-69
2022/07/15 00:14:52;;;;;;;5.45;2.40;;;;;;;;;;4914027;29;20059;-69
2022/07/15 00:17:18;;;;;;;4.22;2.20;;;;;;;;;;4915805;29;20783;-69
2022/07/15 00:19:44;;;;;;;5.10;2.42;;;;;;;;;;4914051;29;20134;-69
2022/07/15 00:22:11;;;;;;;7.93;2.42;;;;;;;;;;4913603;29;20586;-73
2022/07/15 00:24:37;;;;;;;2.95;1.95;;;;;;;;;;4911632;29;20040;-70
2022/07/15 00:27:03;;;;;;;5.35;2.13;;;;;;;;;;4924715;29;20068;-70
2022/07/15 00:29:31;;;;;;;5.57;2.30;;;;;;;;;;4924836;29;20539;-70
2022/07/15 00:31:57;;;;;;;5.47;2.10;;;;;;;;;;4922833;29;20057;-71
2022/07/15 00:34:23;;;;;;;5.55;2.38;;;;;;;;;;4910433;29;20056;-70
2022/07/15 00:36:49;;;;;;;6.80;2.10;;;;;;;;;;4914879;29;20062;-68
2022/07/15 00:39:16;;;;;;;5.65;2.35;;;;;;;;;;4927145;29;20590;-69
2022/07/15 00:41:43;;;;;;;4.95;2.30;;;;;;;;;;4926160;29;20051;-71
2022/07/15 00:44:09;;;;;;;6.18;2.25;;;;;;;;;;4928868;29;20086;-70
2022/07/15 00:46:36;;;;;;;3.40;2.05;;;;;;;;;;4922556;29;20076;-69
2022/07/15 00:49:04;;;;;;;3.75;2.00;;;;;;;;;;4923368;29;20506;-69
2022/07/15 00:51:36;;;;;;;3.13;1.98;;;;;;;;;;4921417;29;20073;-69
2022/07/15 00:54:03;;;;;;;5.18;2.20;;;;;;;;;;4924482;29;20121;-69
2022/07/15 00:56:31;;;;;;;5.00;2.03;;;;;;;;;;4921042;29;20048;-69
2022/07/15 00:59:00;;;;;;;7.47;2.00;;;;;;;;;;4909186;29;20590;-70
2022/07/15 01:01:26;;;;;;;6.65;2.60;;;;;;;;;;4909409;29;20090;-72
2022/07/15 01:03:53;;;;;;;4.20;2.20;;;;;;;;;;4924320;29;20062;-72
2022/07/15 01:06:19;;;;;;;4.03;1.88;;;;;;;;;;4921819;29;20088;-69
2022/07/15 01:08:45;;;;;;;7.65;2.30;;;;;;;;;;4925786;29;20087;-70
2022/07/15 01:11:11;;;;;;;5.07;2.22;;;;;;;;;;4924352;29;20152;-70
2022/07/15 01:13:37;;;;;;;7.13;2.25;;;;;;;;;;4925561;29;20142;-71
2022/07/15 01:16:04;;;;;;;4.40;2.10;;;;;;;;;;4927177;29;20059;-70
2022/07/15 01:18:30;;;;;;;2.72;1.77;;;;;;;;;;4923491;29;20351;-68
2022/07/15 01:20:56;;;;;;;6.40;1.90;;;;;;;;;;4926066;29;20055;-69
2022/07/15 01:23:21;;;;;;;10.18;2.33;;;;;;;;;;4922645;29;20142;-70
2022/07/15 01:25:47;;;;;;;6.07;2.70;;;;;;;;;;4925253;29;20090;-69
2022/07/15 01:28:13;;;;;;;6.75;2.53;;;;;;;;;;4911511;29;20521;-69
2022/07/15 01:30:39;;;;;;;8.88;3.47;;;;;;;;;;4922417;29;20099;-69
2022/07/15 01:33:06;;;;;;;8.63;2.78;;;;;;;;;;4903692;29;20127;-68
2022/07/15 01:35:32;;;;;;;7.97;3.38;;;;;;;;;;4918283;29;20129;-72
2022/07/15 01:37:58;;;;;;;5.57;3.60;;;;;;;;;;4916755;29;20065;-68
2022/07/15 01:40:24;;;;;;;10.15;3.30;;;;;;;;;;4916809;29;20557;-69
2022/07/15 01:42:49;;;;;;;6.93;3.85;;;;;;;;;;4914797;29;20056;-68
2022/07/15 01:45:15;;;;;;;9.82;3.67;;;;;;;;;;4912147;29;20064;-68
2022/07/15 01:47:45;;;;;;;9.68;4.00;;;;;;;;;;4915318;29;20055;-70
2022/07/15 01:50:11;;;;;;;7.88;4.03;;;;;;;;;;4908874;29;20062;-71
2022/07/15 01:52:37;;;;;;;10.27;3.85;;;;;;;;;;4917207;29;20071;-70
2022/07/15 01:55:04;;;;;;;9.75;3.70;;;;;;;;;;4919290;29;20055;-69
2022/07/15 01:57:30;;;;;;;10.88;3.90;;;;;;;;;;4916058;29;20084;-69
2022/07/15 01:59:56;;;;;;;9.45;3.50;;;;;;;;;;4920908;29;20043;-71
2022/07/15 02:02:22;;;;;;;12.23;4.68;;;;;;;;;;4919879;29;20056;-70
2022/07/15 02:04:48;;;;;;;14.60;4.40;;;;;;;;;;4918623;29;20433;-70
2022/07/15 02:07:15;;;;;;;13.13;4.40;;;;;;;;;;4915392;29;20052;-69
2022/07/15 02:09:41;;;;;;;9.00;4.15;;;;;;;;;;4918356;29;20094;-69
2022/07/15 02:12:07;;;;;;;11.98;3.75;;;;;;;;;;4899392;29;20401;-71
2022/07/15 02:14:36;;;;;;;10.93;3.72;;;;;;;;;;4909939;29;20044;-69
2022/07/15 02:17:02;;;;;;;8.50;3.55;;;;;;;;;;4916431;29;20061;-70
2022/07/15 02:19:28;;;;;;;15.73;4.50;;;;;;;;;;4916694;29;20041;-71
2022/07/15 02:21:54;;;;;;;14.27;4.15;;;;;;;;;;4911383;29;20074;-70
2022/07/15 02:24:20;;;;;;;10.45;3.38;;;;;;;;;;4918987;29;20060;-69
2022/07/15 02:26:46;;;;;;;12.25;4.18;;;;;;;;;;4916976;29;20525;-72
2022/07/15 02:29:12;;;;;;;13.40;3.47;;;;;;;;;;4915006;29;20468;-69
2022/07/15 02:31:38;;;;;;;12.10;3.97;;;;;;;;;;4913639;29;20569;-69
2022/07/15 02:34:04;;;;;;;15.20;3.80;;;;;;;;;;4914694;29;20056;-68
2022/07/15 02:36:30;;;;;;;8.50;3.72;;;;;;;;;;4913679;29;20054;-69
2022/07/15 02:38:56;;;;;;;11.85;3.60;;;;;;;;;;4910776;29;20707;-67
2022/07/15 02:41:23;;;;;;;8.88;3.10;;;;;;;;;;4912392;29;20052;-72
2022/07/15 02:43:50;;;;;;;8.10;3.20;;;;;;;;;;4913998;29;20048;-70
2022/07/15 02:46:16;;;;;;;9.93;3.45;;;;;;;;;;4914824;29;20056;-68
2022/07/15 02:48:42;;;;;;;10.23;3.20;;;;;;;;;;4919386;29;20052;-69
2022/07/15 02:51:09;;;;;;;12.60;3.35;;;;;;;;;;4917241;29;20048;-71
2022/07/15 02:53:35;;;;;;;8.00;3.03;;;;;;;;;;4914014;29;20051;-71
2022/07/15 02:56:02;;;;;;;6.93;3.00;;;;;;;;;;4910297;29;20052;-70
2022/07/15 02:58:30;;;;;;;6.75;3.08;;;;;;;;;;4917222;29;20044;-69
2022/07/15 03:00:57;;;;;;;8.57;3.40;;;;;;;;;;4912084;29;20051;-69
2022/07/15 03:03:23;;;;;;;9.50;3.20;;;;;;;;;;4914006;29;20063;-69
2022/07/15 03:05:49;;;;;;;6.53;2.80;;;;;;;;;;4911698;29;20060;-70
2022/07/15 03:08:16;;;;;;;8.90;2.92;;;;;;;;;;4919060;29;20144;-68
2022/07/15 03:10:43;;;;;;;8.73;3.10;;;;;;;;;;4922405;29;20056;-69
2022/07/15 03:13:09;;;;;;;7.47;3.35;;;;;;;;;;4918926;29;20051;-69
2022/07/15 03:15:35;;;;;;;9.43;3.13;;;;;;;;;;4916026;29;20044;-68
2022/07/15 03:18:01;;;;;;;8.10;3.22;;;;;;;;;;4912377;29;20059;-69
2022/07/15 03:20:27;;;;;;;4.07;3.03;;;;;;;;;;4914907;29;20408;-70
2022/07/15 03:22:53;;;;;;;7.40;3.22;;;;;;;;;;4915001;29;20558;-69
2022/07/15 03:25:19;;;;;;;7.75;3.97;;;;;;;;;;4912150;29;20318;-69
2022/07/15 03:27:45;;;;;;;5.70;3.60;;;;;;;;;;4912798;29;20150;-68
2022/07/15 03:30:12;;;;;;;4.97;3.13;;;;;;;;;;4913869;29;20051;-69
2022/07/15 03:32:37;;;;;;;10.05;3.65;;;;;;;;;;4912039;29;20540;-69
2022/07/15 03:35:04;;;;;;;8.93;3.28;;;;;;;;;;4921973;29;20083;-71
2022/07/15 03:37:30;;;;;;;9.35;3.45;;;;;;;;;;4916625;29;20052;-68
2022/07/15 03:39:55;;;;;;;8.38;3.22;;;;;;;;;;4916514;29;20048;-70
2022/07/15 03:42:21;;;;;;;8.63;3.17;;;;;;;;;;4910549;29;20052;-70
2022/07/15 03:44:47;;;;;;;8.30;3.53;;;;;;;;;;4914722;29;20086;-69
2022/07/15 03:47:13;;;;;;;6.63;3.47;;;;;;;;;;4913389;29;20561;-69
2022/07/15 03:49:39;;;;;;;9.77;3.47;;;;;;;;;;4914795;29;20040;-71
2022/07/15 03:52:06;;;;;;;12.63;3.85;;;;;;;;;;4914435;29;20137;-69
2022/07/15 03:54:32;;;;;;;6.25;3.35;;;;;;;;;;4917975;29;20044;-69
2022/07/15 03:56:58;;;;;;;9.35;3.72;;;;;;;;;;4916159;29;20056;-71
2022/07/15 03:59:24;;;;;;;6.00;3.28;;;;;;;;;;4913897;29;20062;-69
2022/07/15 04:01:50;;;;;;;6.43;3.45;;;;;;;;;;4914928;29;20048;-69
2022/07/15 04:04:16;;;;;;;5.38;3.08;;;;;;;;;;4915657;29;20106;-68
2022/07/15 04:06:42;;;;;;;6.18;2.92;;;;;;;;;;4917321;29;20299;-70
2022/07/15 04:09:10;;;;;;;6.63;2.90;;;;;;;;;;4914778;29;20135;-69
2022/07/15 04:11:36;;;;;;;7.55;2.83;;;;;;;;;;4915779;29;20500;-72
2022/07/15 04:14:02;;;;;;;8.45;3.08;;;;;;;;;;4918235;29;20555;-68
2022/07/15 04:16:28;;;;;;;8.07;3.13;;;;;;;;;;4920121;29;20421;-70
2022/07/15 04:18:54;;;;;;;7.60;2.72;;;;;;;;;;4913598;29;20783;-76
2022/07/15 04:21:20;;;;;;;5.85;2.88;;;;;;;;;;4916489;29;20040;-74
2022/07/15 04:23:46;;;;;;;7.13;3.20;;;;;;;;;;4920575;29;20093;-77
2022/07/15 04:26:11;;;;;;;7.45;2.80;;;;;;;;;;4917644;29;20119;-74
2022/07/15 04:28:37;;;;;;;9.35;3.13;;;;;;;;;;4916491;29;20066;-74
2022/07/15 04:31:03;;;;;;;7.28;3.03;;;;;;;;;;4920139;29;20494;-75
2022/07/15 04:33:29;;;;;;;6.55;3.13;;;;;;;;;;4921045;29;20118;-77
2022/07/15 04:35:56;;;;;;;6.22;2.70;;;;;;;;;;4918132;29;20171;-74
2022/07/15 04:38:22;;;;;;;4.07;2.67;;;;;;;;;;4917184;29;20058;-76
2022/07/15 04:40:48;;;;;;;8.20;2.85;;;;;;;;;;4924130;29;20311;-77
2022/07/15 04:43:14;;;;;;;6.53;3.35;;;;;;;;;;4919833;29;20124;-73
2022/07/15 04:45:40;;;;;;;12.10;3.25;;;;;;;;;;4923410;29;20429;-69
2022/07/15 04:50:53;;;;;;;5.63;2.95;;;;;;;;;;4918842;29;20051;-72
2022/07/15 04:53:20;;;;;;;7.55;3.15;;;;;;;;;;4919079;29;20067;-70
2022/07/15 04:55:47;;;;;;;4.78;3.10;;;;;;;;;;4904389;29;20062;-74
2022/07/15 04:58:15;;;;;;;6.35;3.22;;;;;;;;;;4916196;29;20059;-73
2022/07/15 05:00:45;;;;;;;5.78;3.10;;;;;;;;;;4901740;29;20044;-71
2022/07/15 05:03:12;;;;;;;5.70;3.20;;;;;;;;;;4913547;29;20048;-73
2022/07/15 05:05:39;;;;;;;5.95;3.05;;;;;;;;;;4921240;29;20077;-74
2022/07/15 05:08:06;;;;;;;5.70;3.15;;;;;;;;;;4923872;29;20178;-75
2022/07/15 05:10:32;;;;;;;9.45;3.33;;;;;;;;;;4920107;29;20055;-74
2022/07/15 05:12:58;;;;;;;9.18;3.45;;;;;;;;;;4923789;29;20094;-75
2022/07/15 05:15:24;;;;;;;12.13;3.95;;;;;;;;;;4922024;29;20096;-68
2022/07/15 05:17:50;;;;;;;11.60;3.78;;;;;;;;;;4917284;29;20090;-75
2022/07/15 05:20:16;;;;;;;9.35;3.50;;;;;;;;;;4918763;29;20181;-74
2022/07/15 05:22:42;;;;;;;10.90;3.90;;;;;;;;;;4914210;29;20146;-77
2022/07/15 05:25:08;;;;;;;10.40;3.22;;;;;;;;;;4917479;29;20063;-76
2022/07/15 05:27:34;;;;;;;8.70;3.00;;;;;;;;;;4918719;29;20114;-74
2022/07/15 05:30:00;;;;;;;9.23;3.50;;;;;;;;;;4915140;29;20554;-75
2022/07/15 05:32:26;;;;;;;7.60;3.25;;;;;;;;;;4914586;29;20163;-74
2022/07/15 05:34:52;;;;;;;13.77;3.78;;;;;;;;;;4918778;29;20091;-73
2022/07/15 05:37:18;;;;;;;8.95;3.20;;;;;;;;;;4915052;29;20122;-74
2022/07/15 05:39:57;;;;;;;9.85;3.70;;;;;;;;;;4913782;29;20047;-72
2022/07/15 05:42:24;;;;;;;11.07;3.53;;;;;;;;;;4916619;29;20058;-73
2022/07/15 05:44:50;;;;;;;9.80;3.45;;;;;;;;;;4906214;29;20126;-75
2022/07/15 05:47:16;;;;;;;12.05;4.38;;;;;;;;;;4920901;29;20087;-72
2022/07/15 05:49:42;;;;;;;11.82;3.75;;;;;;;;;;4924485;29;20072;-77
2022/07/15 05:52:09;;;;;;;13.95;3.70;;;;;;;;;;4918430;29;20044;-78
2022/07/15 05:54:34;;;;;;;16.50;4.20;;;;;;;;;;4930468;29;20051;-76
2022/07/15 05:57:00;;;;;;;11.55;3.80;;;;;;;;;;4928152;29;20091;-73
2022/07/15 05:59:26;;;;;;;13.70;3.90;;;;;;;;;;4912286;29;20047;-72
2022/07/15 06:01:52;;;;;;;13.38;3.88;;;;;;;;;;4919384;29;20415;-72
2022/07/15 06:04:19;;;;;;;11.45;3.75;;;;;;;;;;4926256;29;20047;-75
2022/07/15 06:06:44;;;;;;;10.48;3.92;;;;;;;;;;4917535;29;20052;-71
2022/07/15 06:09:10;;;;;;;8.40;4.13;;;;;;;;;;4926354;29;20091;-72
2022/07/15 06:11:36;;;;;;;10.25;4.30;;;;;;;;;;4914556;29;20051;-69
2022/07/15 06:14:03;;;;;;;8.05;4.63;;;;;;;;;;4919192;29;20120;-74
2022/07/15 06:16:29;;;;;;;13.43;4.47;;;;;;;;;;4919359;29;20051;-69
2022/07/15 06:18:55;;;;;;;10.90;4.78;;;;;;;;;;4917229;29;20051;-71
2022/07/15 06:21:21;;;;;;;15.93;5.68;;;;;;;;;;4919780;29;20051;-72
2022/07/15 06:23:47;;;;;;;13.80;5.35;;;;;;;;;;4927060;29;20054;-72
2022/07/15 06:26:13;;;;;;;12.10;5.43;;;;;;;;;;4915696;29;20502;-73
2022/07/15 06:28:39;;;;;;;14.63;5.50;;;;;;;;;;4921304;29;20070;-72
2022/07/15 06:31:05;;;;;;;16.10;4.70;;;;;;;;;;4915893;29;20040;-70
2022/07/15 06:33:37;;;;;;;15.40;4.72;;;;;;;;;;4919666;29;20051;-73
2022/07/15 06:36:03;;;;;;;10.70;4.60;;;;;;;;;;4925935;29;20071;-73
2022/07/15 06:38:31;;;;;;;15.48;4.65;;;;;;;;;;4917908;29;20126;-73
2022/07/15 06:40:58;;;;;;;7.50;3.95;;;;;;;;;;4919014;29;20383;-72
2022/07/15 06:43:24;;;;;;;14.20;4.20;;;;;;;;;;4915071;29;20055;-72
2022/07/15 06:45:49;;;;;;;12.88;4.40;;;;;;;;;;4915215;29;20488;-75
2022/07/15 06:48:15;;;;;;;12.38;4.18;;;;;;;;;;4917275;29;20047;-71
2022/07/15 06:50:42;;;;;;;10.80;3.72;;;;;;;;;;4917381;29;20415;-71
2022/07/15 06:53:08;;;;;;;13.02;4.10;;;;;;;;;;4923650;29;20056;-72
2022/07/15 06:55:34;;;;;;;18.40;4.10;;;;;;;;;;4904837;29;20391;-73
2022/07/15 06:57:59;;;;;;;13.88;4.10;;;;;;;;;;4921856;29;20059;-73
2022/07/15 07:00:26;;;;;;;18.08;4.00;;;;;;;;;;4920828;29;20233;-73
2022/07/15 07:02:52;;;;;;;8.75;3.15;;;;;;;;;;4916236;29;20059;-71
2022/07/15 07:05:18;;;;;;;14.13;3.90;;;;;;;;;;4925510;29;20329;-73
2022/07/15 07:07:43;;;;;;;12.73;3.78;;;;;;;;;;4914740;29;20793;-71
2022/07/15 07:10:09;;;;;;;15.07;3.00;;;;;;;;;;4912041;29;20477;-72
2022/07/15 07:12:36;;;;;;;12.48;3.45;;;;;;;;;;4918950;29;20135;-71
2022/07/15 07:15:04;;;;;;;17.50;3.63;;;;;;;;;;4917472;29;20051;-72
2022/07/15 07:17:30;;;;;;;22.15;3.60;;;;;;;;;;4918577;29;20066;-71
2022/07/15 07:19:56;;;;;;;12.25;3.03;;;;;;;;;;4921186;29;20048;-72
2022/07/15 07:22:22;;;;;;;21.13;3.40;;;;;;;;;;4921438;29;20043;-74
2022/07/15 07:24:48;;;;;;;11.80;3.13;;;;;;;;;;4898062;29;20047;-73
2022/07/15 07:27:14;;;;;;;10.48;3.20;;;;;;;;;;4923834;29;20124;-73
2022/07/15 07:29:40;;;;;;;10.43;2.67;;;;;;;;;;4915663;29;20044;-73
2022/07/15 07:32:06;;;;;;;10.90;2.53;;;;;;;;;;4907016;29;20133;-74
2022/07/15 07:34:32;;;;;;;7.53;2.30;;;;;;;;;;4921131;29;20077;-73
2022/07/15 07:36:58;;;;;;;11.75;2.47;;;;;;;;;;4919587;29;20056;-71
2022/07/15 07:39:24;;;;;;;32.20;4.65;;;;;;;;;;4917949;29;20047;-72
2022/07/15 07:41:53;;;;;;;12.32;3.38;;;;;;;;;;4924537;29;20481;-72
2022/07/15 07:44:22;;;;;;;14.05;3.47;;;;;;;;;;4917937;29;20118;-72
2022/07/15 07:46:48;;;;;;;18.48;3.58;;;;;;;;;;4919126;29;20056;-70
2022/07/15 07:49:14;;;;;;;9.65;3.45;;;;;;;;;;4926661;29;20040;-71
2022/07/15 07:51:40;;;;;;;17.05;3.90;;;;;;;;;;4908615;29;20047;-70
2022/07/15 07:54:07;;;;;;;7.65;2.95;;;;;;;;;;4918590;29;20135;-73
2022/07/15 07:56:33;;;;;;;8.80;3.13;;;;;;;;;;4920307;29;20135;-72
2022/07/15 07:58:59;;;;;;;13.20;3.03;;;;;;;;;;4919857;29;20131;-72
2022/07/15 08:01:26;;;;;;;10.57;3.03;;;;;;;;;;4921090;29;20083;-71
2022/07/15 08:03:51;;;;;;;8.35;3.45;;;;;;;;;;4917653;29;20052;-74
2022/07/15 08:06:18;;;;;;;9.27;3.17;;;;;;;;;;4919855;29;20509;-73
2022/07/15 08:08:45;;;;;;;9.65;3.40;;;;;;;;;;4920833;29;20055;-74
2022/07/15 08:11:11;;;;;;;9.23;3.80;;;;;;;;;;4918810;29;20056;-72
2022/07/15 08:13:37;;;;;;;9.07;2.95;;;;;;;;;;4917209;29;20458;-69
2022/07/15 08:16:03;;;;;;;7.28;3.50;;;;;;;;;;4930461;29;20047;-71
2022/07/15 08:18:29;;;;;;;12.40;3.70;;;;;;;;;;4921587;29;20518;-74
2022/07/15 08:20:55;;;;;;;7.40;3.50;;;;;;;;;;4921872;29;20135;-72
2022/07/15 08:23:21;;;;;;;8.00;3.00;;;;;;;;;;4919943;29;20058;-73
2022/07/15 08:25:49;;;;;;;8.35;2.80;;;;;;;;;;4929823;29;20122;-73
2022/07/15 08:28:15;;;;;;;6.70;2.80;;;;;;;;;;4925792;29;21134;-73
2022/07/15 08:30:41;;;;;;;5.15;2.72;;;;;;;;;;4921251;29;20048;-72
2022/07/15 08:33:07;;;;;;;7.93;2.67;;;;;;;;;;4922944;29;20084;-72
2022/07/15 08:35:34;;;;;;;7.10;2.67;;;;;;;;;;4926097;29;20123;-71
2022/07/15 08:38:06;;;;;;;7.32;2.47;;;;;;;;;;4917780;29;20229;-74
2022/07/15 08:40:36;;;;;;;6.30;2.63;;;;;;;;;;4930656;29;20043;-74
2022/07/15 08:43:09;;;;;;;6.70;3.28;;;;;;;;;;4923110;29;20063;-70
2022/07/15 08:45:37;;;;;;;10.52;3.03;;;;;;;;;;4925612;29;20090;-72
2022/07/15 08:48:04;;;;;;;11.93;2.70;;;;;;;;;;4925879;29;20648;-70
2022/07/15 08:50:32;;;;;;;5.78;2.60;;;;;;;;;;4930828;29;20088;-72
2022/07/15 08:52:58;;;;;;;11.63;3.22;;;;;;;;;;4923338;29;20179;-74
2022/07/15 08:55:24;;;;;;;7.97;2.50;;;;;;;;;;4924497;29;20036;-70
2022/07/15 08:57:52;;;;;;;8.15;2.90;;;;;;;;;;4911466;29;20063;-72
2022/07/15 09:00:19;;;;;;;7.32;2.97;;;;;;;;;;4918236;29;20063;-71
2022/07/15 09:02:46;;;;;;;5.00;3.20;;;;;;;;;;4926354;29;20048;-70
2022/07/15 09:05:21;;;;;;;12.15;3.30;;;;;;;;;;4937808;29;20075;-75
2022/07/15 09:08:02;;;;;;;5.65;3.60;;;;;;;;;;4933767;29;20501;-71
2022/07/15 09:10:50;;;;;;;4.97;3.40;;;;;;;;;;4916203;29;20051;-75
2022/07/15 09:13:24;;;;;;;9.85;3.45;;;;;;;;;;4910340;29;20483;-72
2022/07/15 09:15:50;;;;;;;5.22;2.75;;;;;;;;;;4921607;29;20058;-69
2022/07/15 09:18:23;;;;;;;9.15;2.90;;;;;;;;;;4904235;29;20051;-72
2022/07/15 09:20:49;;;;;;;7.18;3.05;;;;;;;;;;4929414;29;20048;-71
2022/07/15 09:23:20;;;;;;;6.78;3.10;;;;;;;;;;4927050;29;20058;-72
2022/07/15 09:25:51;;;;;;;5.35;3.00;;;;;;;;;;4931544;29;20052;-76
2022/07/15 09:28:17;;;;;;;5.05;2.63;;;;;;;;;;4930610;29;20040;-72
2022/07/15 09:33:43;;;;;;;10.18;3.00;;;;;;;;;;4921270;29;20044;-75
2022/07/15 09:36:24;;;;;;;7.00;2.75;;;;;;;;;;4932117;29;20410;-76
2022/07/15 09:38:51;;;;;;;10.40;3.08;;;;;;;;;;4925290;29;20043;-72
2022/07/15 09:41:28;;;;;;;8.18;3.10;;;;;;;;;;4933105;29;20103;-66
2022/07/15 09:44:05;;;;;;;5.43;2.47;;;;;;;;;;4928085;29;20052;-67
2022/07/15 09:46:53;;;;;;;5.88;2.80;;;;;;;;;;4935076;29;20113;-68
2022/07/15 09:49:22;;;;;;;5.55;2.70;;;;;;;;;;4920789;29;20059;-67
2022/07/15 09:51:54;;;;;;;8.15;2.80;;;;;;;;;;4925915;29;20055;-67
2022/07/15 09:54:23;;;;;;;6.88;2.92;;;;;;;;;;4927621;29;20139;-72
2022/07/15 09:56:51;;;;;;;9.85;3.22;;;;;;;;;;4908410;29;20104;-66
2022/07/15 09:59:17;;;;;;;9.05;3.05;;;;;;;;;;4919393;29;20602;-68
2022/07/15 10:01:47;;;;;;;6.47;2.75;;;;;;;;;;4926109;29;20520;-68
2022/07/15 10:04:20;;;;;;;10.75;3.40;;;;;;;;;;4916019;29;20058;-66
2022/07/15 10:06:48;;;;;;;6.28;3.55;;;;;;;;;;4919638;29;20048;-68
2022/07/15 10:09:14;;;;;;;5.53;3.47;;;;;;;;;;4901929;29;20050;-67
2022/07/15 10:11:46;;;;;;;9.88;3.50;;;;;;;;;;4917619;29;20418;-66
2022/07/15 10:14:31;;;;;;;10.30;4.10;;;;;;;;;;4919060;29;20490;-69
2022/07/15 10:17:15;;;;;;;8.00;3.83;;;;;;;;;;4915391;29;20058;-68
2022/07/15 10:20:07;;;;;;;8.05;3.90;;;;;;;;;;4923474;29;20048;-68
2022/07/15 10:22:49;;;;;;;7.18;4.15;;;;;;;;;;4893996;29;20052;-68
2022/07/15 10:26:00;;;;;;;7.85;3.85;;;;;;;;;;4904441;29;20100;-68
2022/07/15 10:28:38;;;;;;;9.32;4.25;;;;;;;;;;4902011;29;20088;-68
2022/07/15 10:31:16;;;;;;;12.50;4.50;;;;;;;;;;4903961;29;20039;-67
2022/07/15 10:33:42;;;;;;;5.85;3.92;;;;;;;;;;4924815;29;20044;-67
2022/07/15 10:36:09;;;;;;;9.38;3.97;;;;;;;;;;4900965;29;20114;-68
2022/07/15 10:38:37;;;;;;;10.43;3.85;;;;;;;;;;4926219;29;20134;-67
2022/07/15 10:41:03;;;;;;;8.00;3.88;;;;;;;;;;4922759;29;20075;-68
2022/07/15 10:43:53;;;;;;;6.32;3.45;;;;;;;;;;4919162;29;20087;-65
2022/07/15 10:46:23;;;;;;;7.10;3.97;;;;;;;;;;4930868;29;20429;-68
2022/07/15 10:48:57;;;;;;;9.35;3.47;;;;;;;;;;4923930;29;20075;-68
2022/07/15 10:51:36;;;;;;;7.40;3.25;;;;;;;;;;4927587;29;20118;-65
2022/07/15 10:54:03;;;;;;;6.47;3.03;;;;;;;;;;4930027;29;20620;-65
2022/07/15 10:56:36;;;;;;;6.88;2.80;;;;;;;;;;4920655;29;20088;-70
2022/07/15 10:59:08;;;;;;;;;;;;;;;;;;4926612;29;20087;-64
2022/07/15 11:01:35;;;;;;;8.05;3.22;;;;;;;;;;4927745;29;19923;-68
2022/07/15 11:04:22;;;;;;;9.23;2.65;;;;;;;;;;4922447;29;20506;-67
2022/07/15 11:07:10;;;;;;;8.23;2.83;;;;;;;;;;4914366;29;20090;-64
2022/07/15 11:10:11;;;;;;;10.18;3.28;;;;;;;;;;4927005;29;20115;-65
2022/07/15 11:12:49;;;;;;;6.10;2.47;;;;;;;;;;4922996;29;20107;-67
2022/07/15 11:15:17;;;;;;;7.13;2.80;;;;;;;;;;4922334;29;20056;-67
2022/07/15 11:17:49;;;;;;;7.35;2.92;;;;;;;;;;4914547;29;20044;-65
2022/07/15 11:20:18;;;;;;;7.43;2.20;;;;;;;;;;4925575;29;20406;-66
2022/07/15 11:22:50;;;;;;;5.90;2.45;;;;;;;;;;4927650;29;20071;-67
2022/07/15 11:25:23;;;;;;;7.32;2.60;;;;;;;;;;4926325;29;20354;-65
2022/07/15 11:28:09;;;;;;;5.47;2.42;;;;;;;;;;4928821;29;20062;-69
2022/07/15 11:30:53;;;;;;;4.30;2.00;;;;;;;;;;4919377;29;20055;-68
2022/07/15 11:33:21;;;;;;;;;;;;;;;;;;4922276;29;20786;-65
2022/07/15 11:35:53;;;;;;;11.95;2.80;;;;;;;;;;4918837;29;20320;-68
2022/07/15 11:38:23;;;;;;;4.38;2.30;;;;;;;;;;4927159;29;20094;-64
2022/07/15 11:46:22;;;;;;;7.03;2.35;;;;;;;;;;4931292;29;20051;-70
2022/07/15 11:48:49;;;;;;;5.97;2.47;;;;;;;;;;4927630;29;20063;-66
2022/07/15 11:51:16;;;;;;;8.27;2.55;;;;;;;;;;4902129;29;20516;-65
2022/07/15 11:53:47;;;;;;;9.73;2.70;;;;;;;;;;4922051;29;20544;-67
2022/07/15 11:56:13;;;;;;;6.95;2.38;;;;;;;;;;4915853;29;20462;-68
2022/07/15 11:58:43;;;;;;;8.82;2.15;;;;;;;;;;4906244;29;20048;-67
2022/07/15 12:01:12;;;;;;;7.40;2.30;;;;;;;;;;4926414;29;20421;-66
2022/07/15 12:03:41;;;;;;;9.27;2.60;;;;;;;;;;4916775;29;20379;-66
2022/07/15 12:06:11;;;;;;;12.82;2.83;;;;;;;;;;4920518;29;20055;-64
2022/07/15 12:08:48;;;;;;;9.00;2.38;;;;;;;;;;4924313;29;20048;-66
2022/07/15 12:11:18;;;;;;;7.15;2.70;;;;;;;;;;4919086;29;20498;-68
2022/07/15 12:13:55;;;;;;;6.93;2.72;;;;;;;;;;4913743;29;20083;-69
2022/07/15 12:16:25;;;;;;;7.50;3.20;;;;;;;;;;4926033;29;20060;-68
2022/07/15 12:18:53;;;;;;;6.95;2.40;;;;;;;;;;4916602;29;20134;-69
2022/07/15 12:21:20;;;;;;;6.22;2.03;;;;;;;;;;4915047;29;20076;-68
2022/07/15 12:24:00;;;;;;;4.13;1.98;;;;;;;;;;4925304;29;20048;-69
2022/07/15 12:26:26;;;;;;;6.82;2.20;;;;;;;;;;4890507;29;20338;-68
2022/07/15 12:28:55;;;;;;;7.32;2.20;;;;;;;;;;4886647;29;20080;-68
2022/07/15 12:31:28;;;;;;;5.90;1.95;;;;;;;;;;4901328;29;20037;-66
2022/07/15 12:33:55;;;;;;;13.40;3.67;;;;;;;;;;4900399;29;20072;-67
2022/07/15 12:36:24;;;;;;;8.38;2.88;;;;;;;;;;4884247;29;20048;-68
2022/07/15 12:39:18;;;;;;;7.32;2.70;;;;;;;;;;4901552;29;20044;-67
2022/07/15 12:41:56;;;;;;;4.70;2.20;;;;;;;;;;4912079;29;20131;-65
2022/07/15 12:44:22;;;;;;;3.53;2.00;;;;;;;;;;4899738;29;20095;-66
2022/07/15 12:46:56;;;;;;;7.30;2.45;;;;;;;;;;4904444;29;20114;-65
2022/07/15 12:49:40;;;;;;;8.60;2.33;;;;;;;;;;4904005;29;20495;-66
2022/07/15 12:52:22;;;;;;;8.60;2.15;;;;;;;;;;4901900;29;20416;-69
2022/07/15 12:54:51;;;;;;;5.05;2.03;;;;;;;;;;4907589;29;20052;-67
2022/07/15 12:57:24;;;;;;;3.45;1.90;;;;;;;;;;4905877;29;20555;-66
2022/07/15 12:59:58;;;;;;;;;;;;;;;;;;4912560;29;20048;-66
2022/07/15 13:02:25;;;;;;;6.03;2.35;;;;;;;;;;4903742;29;19934;-65
2022/07/15 13:04:50;;;;;;;4.65;2.17;;;;;;;;;;4897175;29;20140;-69
2022/07/15 13:07:17;;;;;;;6.18;2.10;;;;;;;;;;4902964;29;20071;-67
2022/07/15 13:09:44;;;;;;;3.83;2.10;;;;;;;;;;4911843;29;20090;-66
2022/07/15 13:12:12;;;;;;;9.68;2.40;;;;;;;;;;4900497;29;20159;-65
2022/07/15 13:14:39;;;;;;;6.28;2.10;;;;;;;;;;4907321;29;20049;-67
2022/07/15 13:17:06;;;;;;;4.40;1.90;;;;;;;;;;4901331;29;20107;-69
2022/07/15 13:19:32;;;;;;;6.30;1.90;;;;;;;;;;4903754;29;20071;-67
2022/07/15 13:21:59;;;;;;;7.55;1.98;;;;;;;;;;4898452;29;20138;-71
2022/07/15 13:24:26;;;;;;;2.42;1.70;;;;;;;;;;4903929;29;20424;-68
2022/07/15 13:26:52;;;;;;;6.13;2.25;;;;;;;;;;4920022;29;20178;-67
2022/07/15 13:29:17;;;;;;;12.75;2.38;;;;;;;;;;4933965;29;20051;-68
2022/07/15 13:31:43;;;;;;;3.72;2.15;;;;;;;;;;4934632;29;20524;-65
2022/07/15 13:34:09;;;;;;;4.63;2.00;;;;;;;;;;4933256;29;20227;-67
2022/07/15 13:36:36;;;;;;;6.47;2.05;;;;;;;;;;4934440;29;20044;-66
2022/07/15 13:39:02;;;;;;;5.93;2.40;;;;;;;;;;4931227;29;20175;-68
2022/07/15 13:41:28;;;;;;;16.85;2.45;;;;;;;;;;4931390;29;20044;-73
2022/07/15 13:43:54;;;;;;;5.45;2.20;;;;;;;;;;4929333;29;20051;-64
2022/07/15 13:46:20;;;;;;;6.50;2.13;;;;;;;;;;4921678;29;20119;-68
2022/07/15 13:48:46;;;;;;;3.83;1.70;;;;;;;;;;4918478;29;20044;-66
2022/07/15 13:51:24;;;;;;;3.40;1.80;;;;;;;;;;4915957;29;20578;-65
2022/07/15 13:53:52;;;;;;;2.65;1.90;;;;;;;;;;4925558;29;20055;-66
2022/07/15 13:56:18;;;;;;;5.97;2.10;;;;;;;;;;4924056;29;20052;-66
2022/07/15 13:58:44;;;;;;;8.98;2.13;;;;;;;;;;4916597;29;20138;-67
2022/07/15 14:01:11;;;;;;;7.97;2.08;;;;;;;;;;4914137;29;20131;-67
2022/07/15 14:03:37;;;;;;;4.60;2.13;;;;;;;;;;4922320;29;20086;-65
2022/07/15 14:06:03;;;;;;;7.53;2.20;;;;;;;;;;4917985;29;20476;-67
2022/07/15 14:08:30;;;;;;;5.03;2.13;;;;;;;;;;4921499;29;20200;-69
2022/07/15 14:10:55;;;;;;;2.38;1.70;;;;;;;;;;4920309;29;20052;-67
2022/07/15 14:13:22;;;;;;;8.00;2.13;;;;;;;;;;4922247;29;20068;-66
2022/07/15 14:15:48;;;;;;;4.55;1.90;;;;;;;;;;4930014;29;20503;-64
2022/07/15 14:18:14;;;;;;;6.82;2.03;;;;;;;;;;4931615;29;20099;-66
2022/07/15 14:20:45;;;;;;;4.47;2.00;;;;;;;;;;4934364;29;20098;-66
2022/07/15 14:23:17;;;;;;;5.00;2.17;;;;;;;;;;4918973;29;20058;-65
2022/07/15 14:25:42;;;;;;;5.13;1.92;;;;;;;;;;4913428;29;20438;-69
2022/07/15 14:28:08;;;;;;;6.00;1.85;;;;;;;;;;4926211;29;20056;-68
2022/07/15 14:30:35;;;;;;;6.93;1.85;;;;;;;;;;4931931;29;20044;-67
2022/07/15 14:33:02;;;;;;;4.18;1.90;;;;;;;;;;4925323;29;20472;-66
2022/07/15 14:35:28;;;;;;;5.22;2.20;;;;;;;;;;4929716;29;20475;-66
2022/07/15 14:37:54;;;;;;;3.78;2.13;;;;;;;;;;4927841;29;20060;-66
2022/07/15 14:40:20;;;;;;;3.38;1.70;;;;;;;;;;4927360;29;20043;-67
2022/07/15 14:42:46;;;;;;;4.03;2.05;;;;;;;;;;4927587;29;20055;-66
2022/07/15 14:45:12;;;;;;;9.43;2.40;;;;;;;;;;4930569;29;20052;-66
2022/07/15 14:47:38;;;;;;;5.63;2.25;;;;;;;;;;4931357;29;20116;-67
2022/07/15 14:50:05;;;;;;;5.55;1.92;;;;;;;;;;4930232;29;20429;-65
2022/07/15 14:52:32;;;;;;;5.45;1.98;;;;;;;;;;4909435;29;20052;-65
2022/07/15 14:55:01;;;;;;;4.78;1.88;;;;;;;;;;4926361;29;20051;-67
2022/07/15 14:57:27;;;;;;;6.38;2.08;;;;;;;;;;4916671;29;20059;-68
2022/07/15 14:59:53;;;;;;;8.43;2.08;;;;;;;;;;4930496;29;20161;-69
2022/07/15 15:02:21;;;;;;;4.03;2.10;;;;;;;;;;4929360;29;20044;-68